createdAt,value
2019-04-03T00:00:10.740Z,10.30
2019-04-03T00:01:05.567Z,10.30
2019-04-03T00:02:10.058Z,10.30
2019-04-03T00:03:05.659Z,10.30
2019-04-03T00:04:05.540Z,10.30
2019-04-03T00:05:05.558Z,10.30
2019-04-03T00:06:06.082Z,10.30
2019-04-03T00:07:06.013Z,10.30
2019-04-03T00:08:06.373Z,10.30
2019-04-03T00:09:06.471Z,10.30
2019-04-03T00:10:06.596Z,10.30
2019-04-03T00:11:08.255Z,10.20
2019-04-03T00:12:05.571Z,10.30
2019-04-03T00:13:05.551Z,10.30
2019-04-03T00:14:08.143Z,10.20
2019-04-03T00:15:08.203Z,10.20
2019-04-03T00:16:05.578Z,10.20
2019-04-03T00:17:05.662Z,10.20
2019-04-03T00:18:05.569Z,10.20
2019-04-03T00:19:05.593Z,10.20
2019-04-03T00:20:05.770Z,10.20
2019-04-03T00:21:05.583Z,10.20
2019-04-03T00:22:05.669Z,10.10
2019-04-03T00:23:05.641Z,10.20
2019-04-03T00:24:05.572Z,10.10
2019-04-03T00:25:05.674Z,10.10
2019-04-03T00:26:05.577Z,10.10
2019-04-03T00:27:05.725Z,10.10
2019-04-03T00:28:05.574Z,10.10
2019-04-03T00:29:05.579Z,10.20
2019-04-03T00:30:05.813Z,10.20
2019-04-03T00:31:05.569Z,10.20
2019-04-03T00:32:05.703Z,10.20
2019-04-03T00:33:05.606Z,10.20
2019-04-03T00:34:05.597Z,10.20
2019-04-03T00:35:05.582Z,10.20
2019-04-03T00:36:05.608Z,10.20
2019-04-03T00:37:05.610Z,10.20
2019-04-03T00:38:05.860Z,10.20
2019-04-03T00:39:05.607Z,10.20
2019-04-03T00:40:05.587Z,10.20
2019-04-03T00:41:05.651Z,10.20
2019-04-03T00:42:05.580Z,10.20
2019-04-03T00:43:05.600Z,10.20
2019-04-03T00:44:05.626Z,10.20
2019-04-03T00:45:05.586Z,10.10
2019-04-03T00:46:05.612Z,10.10
2019-04-03T00:47:07.215Z,10.10
2019-04-03T00:49:07.986Z,10.10
2019-04-03T00:50:09.972Z,10.10
2019-04-03T00:51:05.606Z,10.10
2019-04-03T00:52:05.689Z,10.00
2019-04-03T00:53:05.597Z,10.10
2019-04-03T00:54:05.760Z,10.10
2019-04-03T00:55:05.600Z,10.10
2019-04-03T00:56:07.821Z,10.10
2019-04-03T00:57:05.611Z,10.10
2019-04-03T00:58:05.657Z,10.10
2019-04-03T00:59:05.627Z,10.00
2019-04-03T01:00:05.659Z,10.00
2019-04-03T01:01:05.835Z,10.00
2019-04-03T01:02:05.597Z,10.00
2019-04-03T01:03:05.615Z,10.00
2019-04-03T01:04:05.737Z,10.00
2019-04-03T01:05:05.608Z,10.00
2019-04-03T01:06:05.637Z,10.00
2019-04-03T01:07:05.630Z,9.90
2019-04-03T01:08:05.634Z,9.90
2019-04-03T01:09:05.602Z,10.00
2019-04-03T01:10:05.812Z,9.90
2019-04-03T01:12:05.615Z,9.90
2019-04-03T01:12:10.911Z,9.90
2019-04-03T01:13:05.625Z,9.90
2019-04-03T01:14:05.673Z,9.90
2019-04-03T01:15:07.417Z,9.90
2019-04-03T01:16:05.646Z,9.80
2019-04-03T01:17:05.807Z,9.80
2019-04-03T01:18:05.606Z,9.80
2019-04-03T01:19:06.290Z,9.80
2019-04-03T01:20:06.314Z,9.80
2019-04-03T01:21:06.801Z,9.70
2019-04-03T01:22:07.329Z,9.70
2019-04-03T01:23:07.171Z,9.70
2019-04-03T01:24:07.289Z,9.70
2019-04-03T01:25:08.169Z,9.70
2019-04-03T01:26:05.639Z,9.70
2019-04-03T01:27:05.647Z,9.70
2019-04-03T01:28:05.655Z,9.70
2019-04-03T01:29:05.606Z,9.70
2019-04-03T01:30:05.622Z,9.70
2019-04-03T01:31:05.622Z,9.70
2019-04-03T01:32:05.618Z,9.70
2019-04-03T01:33:05.682Z,9.70
2019-04-03T01:34:05.633Z,9.70
2019-04-03T01:35:05.748Z,9.70
2019-04-03T01:36:05.617Z,9.70
2019-04-03T01:37:05.749Z,9.70
2019-04-03T01:38:05.745Z,9.60
2019-04-03T01:39:05.640Z,9.60
2019-04-03T01:40:05.659Z,9.60
2019-04-03T01:41:05.698Z,9.60
2019-04-03T01:42:05.642Z,9.60
2019-04-03T01:43:05.667Z,9.50
2019-04-03T01:45:05.709Z,9.50
2019-04-03T01:46:05.800Z,9.50
2019-04-03T01:47:05.716Z,9.50
2019-04-03T01:48:05.643Z,9.50
2019-04-03T01:49:05.639Z,9.40
2019-04-03T01:50:05.643Z,9.40
2019-04-03T01:51:05.648Z,9.40
2019-04-03T01:52:05.930Z,9.40
2019-04-03T01:54:05.697Z,9.40
2019-04-03T01:54:10.451Z,9.40
2019-04-03T01:55:05.646Z,9.40
2019-04-03T01:56:05.652Z,9.40
2019-04-03T01:57:06.389Z,9.40
2019-04-03T01:58:06.492Z,9.40
2019-04-03T01:59:10.226Z,9.40
2019-04-03T02:00:07.343Z,9.40
2019-04-03T02:01:06.274Z,9.40
2019-04-03T02:02:06.666Z,9.40
2019-04-03T02:03:05.654Z,9.40
2019-04-03T02:05:05.711Z,9.40
2019-04-03T02:06:05.786Z,9.40
2019-04-03T02:07:05.682Z,9.40
2019-04-03T02:08:05.673Z,9.50
2019-04-03T02:09:05.675Z,9.40
2019-04-03T02:10:05.674Z,9.40
2019-04-03T02:11:05.700Z,9.40
2019-04-03T02:12:05.645Z,9.50
2019-04-03T02:13:05.755Z,9.40
2019-04-03T02:14:05.716Z,9.40
2019-04-03T02:15:05.649Z,9.40
2019-04-03T02:16:05.915Z,9.40
2019-04-03T02:17:05.807Z,9.40
2019-04-03T02:18:05.656Z,9.40
2019-04-03T02:19:05.686Z,9.40
2019-04-03T02:20:05.680Z,9.30
2019-04-03T02:21:05.685Z,9.30
2019-04-03T02:22:05.714Z,9.40
2019-04-03T02:23:05.741Z,9.30
2019-04-03T02:24:05.795Z,9.40
2019-04-03T02:25:05.708Z,9.40
2019-04-03T02:26:05.807Z,9.40
2019-04-03T02:27:05.732Z,9.40
2019-04-03T02:28:05.740Z,9.40
2019-04-03T02:29:08.168Z,9.40
2019-04-03T02:30:05.716Z,9.40
2019-04-03T02:31:05.796Z,9.40
2019-04-03T02:32:05.747Z,9.40
2019-04-03T02:33:05.724Z,9.40
2019-04-03T02:34:05.780Z,9.40
2019-04-03T02:35:07.679Z,9.40
2019-04-03T02:37:05.757Z,9.40
2019-04-03T02:38:05.723Z,9.40
2019-04-03T02:39:05.726Z,9.40
2019-04-03T02:40:05.757Z,9.40
2019-04-03T02:41:05.746Z,9.40
2019-04-03T02:42:08.470Z,9.40
2019-04-03T02:43:13.418Z,9.40
2019-04-03T02:44:05.738Z,9.40
2019-04-03T02:45:05.739Z,9.40
2019-04-03T02:46:05.813Z,9.40
2019-04-03T02:47:05.744Z,9.30
2019-04-03T02:48:06.487Z,9.30
2019-04-03T02:49:09.009Z,9.30
2019-04-03T02:50:05.751Z,9.30
2019-04-03T02:51:05.779Z,9.30
2019-04-03T02:52:05.695Z,9.30
2019-04-03T02:53:05.774Z,9.30
2019-04-03T02:54:05.751Z,9.30
2019-04-03T02:55:07.271Z,9.30
2019-04-03T02:56:12.621Z,9.20
2019-04-03T02:57:05.798Z,9.30
2019-04-03T02:58:05.713Z,9.30
2019-04-03T02:59:05.813Z,9.30
2019-04-03T03:01:07.052Z,9.20
2019-04-03T03:02:05.711Z,9.30
2019-04-03T03:03:05.719Z,9.20
2019-04-03T03:04:05.725Z,9.20
2019-04-03T03:05:05.750Z,9.20
2019-04-03T03:06:05.713Z,9.20
2019-04-03T03:07:05.733Z,9.20
2019-04-03T03:08:07.964Z,9.20
2019-04-03T03:09:05.730Z,9.20
2019-04-03T03:10:05.974Z,9.10
2019-04-03T03:11:05.713Z,9.20
2019-04-03T03:12:05.724Z,9.20
2019-04-03T03:13:05.688Z,9.10
2019-04-03T03:14:07.169Z,9.10
2019-04-03T03:15:05.726Z,9.10
2019-04-03T03:16:05.720Z,9.10
2019-04-03T03:17:05.709Z,9.10
2019-04-03T03:18:06.021Z,9.10
2019-04-03T03:19:05.751Z,9.10
2019-04-03T03:20:07.458Z,9.10
2019-04-03T03:21:12.679Z,9.10
2019-04-03T03:22:05.886Z,9.20
2019-04-03T03:23:05.796Z,9.20
2019-04-03T03:24:05.719Z,9.10
2019-04-03T03:25:05.891Z,9.10
2019-04-03T03:26:06.194Z,9.10
2019-04-03T03:27:09.189Z,9.20
2019-04-03T03:28:05.746Z,9.10
2019-04-03T03:29:16.096Z,9.10
2019-04-03T03:31:08.209Z,9.10
2019-04-03T03:31:10.692Z,9.10
2019-04-03T03:32:12.393Z,9.10
2019-04-03T03:33:23.620Z,9.10
2019-04-03T03:34:06.597Z,9.10
2019-04-03T03:35:11.485Z,9.10
2019-04-03T03:36:05.837Z,9.10
2019-04-03T03:37:05.906Z,9.10
2019-04-03T03:38:06.944Z,9.10
2019-04-03T03:39:05.733Z,9.00
2019-04-03T03:40:05.752Z,9.10
2019-04-03T03:41:05.753Z,9.00
2019-04-03T03:42:05.738Z,9.00
2019-04-03T03:43:06.429Z,9.10
2019-04-03T03:44:10.245Z,9.10
2019-04-03T03:45:05.938Z,9.00
2019-04-03T03:46:07.915Z,9.10
2019-04-03T03:47:05.904Z,9.00
2019-04-03T03:48:09.094Z,9.10
2019-04-03T03:49:06.165Z,9.10
2019-04-03T03:50:05.977Z,9.00
2019-04-03T03:51:05.782Z,9.00
2019-04-03T03:52:06.263Z,9.00
2019-04-03T03:53:09.590Z,9.00
2019-04-03T03:54:07.988Z,9.00
2019-04-03T03:55:05.843Z,9.00
2019-04-03T03:56:05.783Z,9.00
2019-04-03T03:57:07.169Z,9.00
2019-04-03T03:58:10.664Z,8.90
2019-04-03T03:59:05.757Z,8.90
2019-04-03T04:00:05.800Z,8.90
2019-04-03T04:01:05.839Z,8.90
2019-04-03T04:02:10.199Z,8.90
2019-04-03T04:03:08.495Z,8.90
2019-04-03T04:04:05.841Z,8.90
2019-04-03T04:05:09.752Z,8.90
2019-04-03T04:06:05.963Z,8.90
2019-04-03T04:07:05.888Z,8.90
2019-04-03T04:08:08.920Z,8.90
2019-04-03T04:09:05.994Z,8.90
2019-04-03T04:10:05.780Z,8.90
2019-04-03T04:11:05.785Z,8.80
2019-04-03T04:12:10.281Z,8.80
2019-04-03T04:13:05.850Z,8.90
2019-04-03T04:14:05.973Z,8.80
2019-04-03T04:15:05.833Z,8.80
2019-04-03T04:16:05.831Z,8.80
2019-04-03T04:17:08.574Z,8.80
2019-04-03T04:18:06.101Z,8.70
2019-04-03T04:19:05.776Z,8.70
2019-04-03T04:20:06.202Z,8.70
2019-04-03T04:21:09.322Z,8.70
2019-04-03T04:22:05.799Z,8.70
2019-04-03T04:23:06.180Z,8.70
2019-04-03T04:24:05.781Z,8.70
2019-04-03T04:25:08.014Z,8.70
2019-04-03T04:26:05.798Z,8.70
2019-04-03T04:27:05.762Z,8.70
2019-04-03T04:28:08.959Z,8.70
2019-04-03T04:29:06.059Z,8.60
2019-04-03T04:30:05.798Z,8.70
2019-04-03T04:31:05.810Z,8.60
2019-04-03T04:32:05.789Z,8.70
2019-04-03T04:33:05.812Z,8.70
2019-04-03T04:34:05.811Z,8.60
2019-04-03T04:35:10.286Z,8.60
2019-04-03T04:36:05.942Z,8.60
2019-04-03T04:37:05.793Z,8.60
2019-04-03T04:38:05.787Z,8.60
2019-04-03T04:39:05.783Z,8.60
2019-04-03T04:40:05.786Z,8.60
2019-04-03T04:41:05.937Z,8.50
2019-04-03T04:42:05.797Z,8.50
2019-04-03T04:43:07.331Z,8.50
2019-04-03T04:44:06.002Z,8.50
2019-04-03T04:45:05.835Z,8.50
2019-04-03T04:46:09.151Z,8.40
2019-04-03T04:47:05.815Z,8.40
2019-04-03T04:48:05.879Z,8.40
2019-04-03T04:49:05.820Z,8.40
2019-04-03T04:50:05.799Z,8.40
2019-04-03T04:51:05.802Z,8.40
2019-04-03T04:52:05.804Z,8.30
2019-04-03T04:53:09.878Z,8.40
2019-04-03T04:54:05.843Z,8.40
2019-04-03T04:55:05.878Z,8.40
2019-04-03T04:56:06.472Z,8.40
2019-04-03T04:58:05.868Z,8.30
2019-04-03T04:58:11.615Z,8.40
2019-04-03T04:59:05.859Z,8.40
2019-04-03T05:00:05.804Z,8.30
2019-04-03T05:01:05.848Z,8.30
2019-04-03T05:02:05.833Z,8.30
2019-04-03T05:03:05.863Z,8.30
2019-04-03T05:04:06.096Z,8.30
2019-04-03T05:06:05.859Z,8.30
2019-04-03T05:06:10.455Z,8.30
2019-04-03T05:07:06.039Z,8.30
2019-04-03T05:08:05.835Z,8.30
2019-04-03T05:09:05.808Z,8.30
2019-04-03T05:10:06.550Z,8.30
2019-04-03T05:11:07.465Z,8.20
2019-04-03T05:12:05.815Z,8.20
2019-04-03T05:13:05.870Z,8.20
2019-04-03T05:14:05.811Z,8.30
2019-04-03T05:15:05.815Z,8.20
2019-04-03T05:16:05.937Z,8.30
2019-04-03T05:17:05.822Z,8.30
2019-04-03T05:18:05.856Z,8.30
2019-04-03T05:19:09.931Z,8.30
2019-04-03T05:20:05.843Z,8.30
2019-04-03T05:21:05.848Z,8.30
2019-04-03T05:22:05.987Z,8.30
2019-04-03T05:23:06.040Z,8.30
2019-04-03T05:24:12.389Z,8.20
2019-04-03T05:25:05.841Z,8.20
2019-04-03T05:26:05.839Z,8.20
2019-04-03T05:27:07.409Z,8.20
2019-04-03T05:28:10.335Z,8.20
2019-04-03T05:29:07.812Z,8.30
2019-04-03T05:30:06.546Z,8.30
2019-04-03T05:31:06.049Z,8.30
2019-04-03T05:32:05.876Z,8.30
2019-04-03T05:33:05.845Z,8.30
2019-04-03T05:34:05.859Z,8.40
2019-04-03T05:35:06.112Z,8.40
2019-04-03T05:36:10.370Z,8.40
2019-04-03T05:37:06.131Z,8.40
2019-04-03T05:39:05.851Z,8.50
2019-04-03T05:40:05.835Z,8.50
2019-04-03T05:41:05.969Z,8.50
2019-04-03T05:42:05.827Z,8.50
2019-04-03T05:43:05.997Z,8.60
2019-04-03T05:44:05.849Z,8.60
2019-04-03T05:45:05.923Z,8.60
2019-04-03T05:46:06.331Z,8.60
2019-04-03T05:47:07.608Z,8.60
2019-04-03T05:48:06.824Z,8.70
2019-04-03T05:49:05.850Z,8.70
2019-04-03T05:50:05.879Z,8.70
2019-04-03T05:51:06.149Z,8.70
2019-04-03T05:52:05.860Z,8.70
2019-04-03T05:53:06.462Z,8.80
2019-04-03T05:54:07.730Z,8.80
2019-04-03T05:55:06.003Z,8.80
2019-04-03T05:56:05.885Z,8.90
2019-04-03T05:57:10.098Z,8.90
2019-04-03T05:58:10.307Z,9.00
2019-04-03T05:59:05.926Z,9.00
2019-04-03T06:00:06.771Z,9.10
2019-04-03T06:01:06.844Z,9.20
2019-04-03T06:02:14.533Z,9.20
2019-04-03T06:04:05.897Z,9.40
2019-04-03T06:05:06.569Z,9.50
2019-04-03T06:06:06.115Z,9.60
2019-04-03T06:07:05.871Z,9.70
2019-04-03T06:08:05.936Z,9.80
2019-04-03T06:09:05.896Z,9.90
2019-04-03T06:10:06.212Z,10.00
2019-04-03T06:11:08.316Z,10.10
2019-04-03T06:12:08.291Z,10.20
2019-04-03T06:13:06.249Z,10.30
2019-04-03T06:14:08.190Z,10.30
2019-04-03T06:15:08.819Z,10.40
2019-04-03T06:16:06.055Z,10.40
2019-04-03T06:17:05.885Z,10.40
2019-04-03T06:18:06.074Z,10.40
2019-04-03T06:19:06.743Z,10.40
2019-04-03T06:20:05.894Z,10.40
2019-04-03T06:21:05.864Z,10.40
2019-04-03T06:22:05.967Z,10.40
2019-04-03T06:23:05.893Z,10.40
2019-04-03T06:24:05.890Z,10.40
2019-04-03T06:25:05.938Z,10.40
2019-04-03T06:26:05.927Z,10.40
2019-04-03T06:27:06.000Z,10.40
2019-04-03T06:28:05.973Z,10.40
2019-04-03T06:29:07.258Z,10.40
2019-04-03T06:31:08.051Z,10.40
2019-04-03T06:32:06.389Z,10.30
2019-04-03T06:33:06.001Z,10.30
2019-04-03T06:34:07.318Z,10.30
2019-04-03T06:35:08.070Z,10.30
2019-04-03T06:36:06.087Z,10.30
2019-04-03T06:37:05.919Z,10.30
2019-04-03T06:38:05.943Z,10.30
2019-04-03T06:39:05.910Z,10.30
2019-04-03T06:40:05.961Z,10.30
2019-04-03T06:41:07.764Z,10.40
2019-04-03T06:42:05.934Z,10.40
2019-04-03T06:43:05.933Z,10.40
2019-04-03T06:44:05.929Z,10.40
2019-04-03T06:45:05.921Z,10.40
2019-04-03T06:46:05.917Z,10.40
2019-04-03T06:47:05.903Z,10.40
2019-04-03T06:48:05.939Z,10.40
2019-04-03T06:49:07.805Z,10.40
2019-04-03T06:50:05.934Z,10.40
2019-04-03T06:52:05.916Z,10.50
2019-04-03T06:52:10.874Z,10.50
2019-04-03T06:53:05.942Z,10.50
2019-04-03T06:54:07.778Z,10.50
2019-04-03T06:55:05.976Z,10.50
2019-04-03T06:56:07.606Z,10.50
2019-04-03T06:57:05.931Z,10.60
2019-04-03T06:58:05.925Z,10.60
2019-04-03T06:59:07.807Z,10.60
2019-04-03T07:00:06.032Z,10.60
2019-04-03T07:01:06.246Z,10.60
2019-04-03T07:03:05.948Z,10.60
2019-04-03T07:04:06.768Z,10.60
2019-04-03T07:05:05.955Z,10.70
2019-04-03T07:06:05.928Z,10.70
2019-04-03T07:07:05.939Z,10.70
2019-04-03T07:08:06.138Z,10.70
2019-04-03T07:09:06.251Z,10.70
2019-04-03T07:10:08.413Z,10.80
2019-04-03T07:11:06.002Z,10.80
2019-04-03T07:12:05.951Z,10.80
2019-04-03T07:13:05.944Z,10.80
2019-04-03T07:14:05.971Z,10.90
2019-04-03T07:15:05.952Z,10.90
2019-04-03T07:16:06.013Z,11.00
2019-04-03T07:17:06.188Z,11.00
2019-04-03T07:18:06.621Z,11.20
2019-04-03T07:19:08.125Z,11.20
2019-04-03T07:20:13.177Z,11.30
2019-04-03T07:21:06.178Z,11.40
2019-04-03T07:22:05.960Z,11.50
2019-04-03T07:23:06.182Z,11.60
2019-04-03T07:24:06.052Z,11.60
2019-04-03T07:26:05.999Z,11.80
2019-04-03T07:27:06.258Z,11.80
2019-04-03T07:28:08.179Z,11.80
2019-04-03T07:29:05.990Z,11.80
2019-04-03T07:30:06.038Z,11.90
2019-04-03T07:32:06.016Z,12.00
2019-04-03T07:33:06.368Z,12.10
2019-04-03T07:34:06.016Z,12.10
2019-04-03T07:35:09.699Z,12.20
2019-04-03T07:36:06.015Z,12.20
2019-04-03T07:37:06.394Z,12.20
2019-04-03T07:38:05.998Z,12.20
2019-04-03T07:39:05.990Z,12.30
2019-04-03T07:40:06.053Z,12.30
2019-04-03T07:41:06.204Z,12.30
2019-04-03T07:42:06.046Z,12.30
2019-04-03T07:43:06.102Z,12.40
2019-04-03T07:44:05.982Z,12.40
2019-04-03T07:45:06.036Z,12.40
2019-04-03T07:46:05.984Z,12.40
2019-04-03T07:47:05.988Z,12.50
2019-04-03T07:48:06.937Z,12.50
2019-04-03T07:49:06.749Z,12.50
2019-04-03T07:50:06.013Z,12.60
2019-04-03T07:51:05.958Z,12.60
2019-04-03T07:52:05.985Z,12.60
2019-04-03T07:53:05.957Z,12.60
2019-04-03T07:54:10.061Z,12.70
2019-04-03T07:55:10.319Z,12.60
2019-04-03T07:56:06.279Z,12.60
2019-04-03T07:57:05.982Z,12.60
2019-04-03T07:58:06.208Z,12.60
2019-04-03T07:59:06.029Z,12.60
2019-04-03T08:00:07.012Z,12.60
2019-04-03T08:01:05.978Z,12.60
2019-04-03T08:02:05.976Z,12.70
2019-04-03T08:03:06.094Z,12.60
2019-04-03T08:04:06.007Z,12.60
2019-04-03T08:05:06.063Z,12.60
2019-04-03T08:06:06.224Z,12.60
2019-04-03T08:07:10.570Z,12.60
2019-04-03T08:08:08.004Z,12.70
2019-04-03T08:09:08.896Z,12.70
2019-04-03T08:10:06.029Z,12.70
2019-04-03T08:11:06.067Z,12.70
2019-04-03T08:12:05.985Z,12.70
2019-04-03T08:13:06.563Z,12.70
2019-04-03T08:14:06.700Z,12.70
2019-04-03T08:15:05.995Z,12.70
2019-04-03T08:16:06.076Z,12.70
2019-04-03T08:17:07.830Z,12.70
2019-04-03T08:18:06.133Z,12.70
2019-04-03T08:19:08.069Z,12.70
2019-04-03T08:20:05.985Z,12.70
2019-04-03T08:21:06.012Z,12.70
2019-04-03T08:22:06.223Z,12.60
2019-04-03T08:23:06.247Z,12.70
2019-04-03T08:24:08.050Z,12.70
2019-04-03T08:25:06.013Z,12.70
2019-04-03T08:26:06.038Z,12.70
2019-04-03T08:27:08.092Z,12.70
2019-04-03T08:28:06.260Z,12.70
2019-04-03T08:29:05.976Z,12.70
2019-04-03T08:30:08.426Z,12.60
2019-04-03T08:31:06.017Z,12.70
2019-04-03T08:32:06.049Z,12.60
2019-04-03T08:33:15.065Z,12.60
2019-04-03T08:34:15.444Z,12.60
2019-04-03T08:35:18.664Z,12.60
2019-04-03T08:36:07.617Z,12.60
2019-04-03T08:37:06.044Z,12.60
2019-04-03T08:38:06.014Z,12.60
2019-04-03T08:39:06.005Z,12.60
2019-04-03T08:40:06.004Z,12.60
2019-04-03T08:41:06.326Z,12.70
2019-04-03T08:42:06.079Z,12.70
2019-04-03T08:43:09.801Z,12.70
2019-04-03T08:44:07.947Z,12.70
2019-04-03T08:45:06.891Z,12.70
2019-04-03T08:46:10.952Z,12.70
2019-04-03T08:47:06.008Z,12.70
2019-04-03T08:48:07.117Z,12.70
2019-04-03T08:49:06.105Z,12.70
2019-04-03T08:50:06.122Z,12.70
2019-04-03T08:51:06.077Z,12.80
2019-04-03T08:52:10.371Z,12.70
2019-04-03T08:53:07.885Z,12.70
2019-04-03T08:54:06.032Z,12.80
2019-04-03T08:55:06.031Z,12.80
2019-04-03T08:56:06.057Z,12.80
2019-04-03T08:57:06.028Z,12.80
2019-04-03T08:58:06.017Z,12.80
2019-04-03T08:59:06.003Z,12.80
2019-04-03T09:00:06.110Z,12.80
2019-04-03T09:01:06.023Z,12.80
2019-04-03T09:02:07.847Z,12.80
2019-04-03T09:04:06.073Z,12.80
2019-04-03T09:05:06.032Z,12.80
2019-04-03T09:06:06.044Z,12.90
2019-04-03T09:07:06.144Z,12.80
2019-04-03T09:08:06.027Z,12.90
2019-04-03T09:10:06.080Z,12.90
2019-04-03T09:10:11.113Z,12.90
2019-04-03T09:11:06.105Z,12.90
2019-04-03T09:12:08.011Z,13.00
2019-04-03T09:13:16.470Z,13.00
2019-04-03T09:14:06.042Z,13.00
2019-04-03T09:15:06.041Z,13.00
2019-04-03T09:16:06.050Z,13.10
2019-04-03T09:17:06.290Z,13.10
2019-04-03T09:18:06.882Z,13.10
2019-04-03T09:19:10.110Z,13.10
2019-04-03T09:20:06.080Z,13.10
2019-04-03T09:21:06.095Z,13.00
2019-04-03T09:22:06.309Z,13.10
2019-04-03T09:23:06.049Z,13.10
2019-04-03T09:24:06.035Z,13.10
2019-04-03T09:25:06.394Z,13.20
2019-04-03T09:26:06.051Z,13.20
2019-04-03T09:27:08.127Z,13.20
2019-04-03T09:28:10.972Z,13.30
2019-04-03T09:29:06.058Z,13.30
2019-04-03T09:30:06.162Z,13.30
2019-04-03T09:31:06.051Z,13.30
2019-04-03T09:32:06.063Z,13.30
2019-04-03T09:33:06.084Z,13.40
2019-04-03T09:34:06.048Z,13.50
2019-04-03T09:35:06.155Z,13.50
2019-04-03T09:36:06.273Z,13.50
2019-04-03T09:37:07.029Z,13.60
2019-04-03T09:38:08.676Z,13.60
2019-04-03T09:39:06.112Z,13.60
2019-04-03T09:40:06.093Z,13.70
2019-04-03T09:41:06.250Z,13.70
2019-04-03T09:42:06.056Z,13.80
2019-04-03T09:43:06.148Z,13.80
2019-04-03T09:44:06.072Z,13.80
2019-04-03T09:45:06.181Z,13.80
2019-04-03T09:46:06.029Z,13.90
2019-04-03T09:47:07.316Z,14.00
2019-04-03T09:48:06.262Z,14.00
2019-04-03T09:49:07.531Z,14.00
2019-04-03T09:50:06.377Z,14.10
2019-04-03T09:51:09.297Z,14.10
2019-04-03T09:52:06.052Z,14.10
2019-04-03T09:53:06.236Z,14.20
2019-04-03T09:54:06.097Z,14.30
2019-04-03T09:55:06.276Z,14.30
2019-04-03T09:56:07.886Z,14.40
2019-04-03T09:57:06.069Z,14.50
2019-04-03T09:58:06.095Z,14.60
2019-04-03T09:59:06.757Z,14.60
2019-04-03T10:00:06.234Z,14.70
2019-04-03T10:01:06.157Z,14.80
2019-04-03T10:02:06.097Z,14.90
2019-04-03T10:03:06.096Z,14.90
2019-04-03T10:04:06.109Z,15.10
2019-04-03T10:05:06.379Z,15.20
2019-04-03T10:07:06.157Z,15.30
2019-04-03T10:08:08.283Z,15.30
2019-04-03T10:09:11.840Z,15.40
2019-04-03T10:10:06.096Z,15.40
2019-04-03T10:11:06.092Z,15.40
2019-04-03T10:12:06.108Z,15.50
2019-04-03T10:13:06.095Z,15.60
2019-04-03T10:14:06.173Z,15.60
2019-04-03T10:15:06.121Z,15.60
2019-04-03T10:16:06.107Z,15.70
2019-04-03T10:17:06.965Z,15.70
2019-04-03T10:18:06.867Z,15.80
2019-04-03T10:19:06.112Z,15.80
2019-04-03T10:20:06.375Z,15.90
2019-04-03T10:21:13.091Z,15.90
2019-04-03T10:22:06.181Z,15.90
2019-04-03T10:23:06.539Z,15.90
2019-04-03T10:24:09.979Z,16.00
2019-04-03T10:25:06.314Z,16.00
2019-04-03T10:26:08.361Z,16.00
2019-04-03T10:27:06.092Z,16.10
2019-04-03T10:28:06.107Z,16.10
2019-04-03T10:29:06.105Z,16.10
2019-04-03T10:30:06.338Z,16.10
2019-04-03T10:31:06.077Z,16.20
2019-04-03T10:32:06.121Z,16.20
2019-04-03T10:33:06.096Z,16.30
2019-04-03T10:34:06.177Z,16.40
2019-04-03T10:36:06.112Z,16.30
2019-04-03T10:37:06.118Z,16.30
2019-04-03T10:38:06.306Z,16.30
2019-04-03T10:39:06.463Z,16.30
2019-04-03T10:40:09.724Z,16.40
2019-04-03T10:41:06.207Z,16.30
2019-04-03T10:43:06.382Z,16.40
2019-04-03T10:44:06.639Z,16.40
2019-04-03T10:45:06.127Z,16.50
2019-04-03T10:46:06.156Z,16.50
2019-04-03T10:47:06.111Z,16.60
2019-04-03T10:48:06.137Z,16.60
2019-04-03T10:50:06.142Z,16.70
2019-04-03T10:51:07.012Z,16.70
2019-04-03T10:52:06.288Z,16.70
2019-04-03T10:53:06.097Z,16.80
2019-04-03T10:54:06.134Z,16.80
2019-04-03T10:55:06.141Z,16.80
2019-04-03T10:56:06.486Z,16.80
2019-04-03T10:58:07.090Z,16.90
2019-04-03T10:59:11.305Z,16.90
2019-04-03T11:00:06.131Z,16.90
2019-04-03T11:01:06.138Z,16.90
2019-04-03T11:02:06.283Z,16.90
2019-04-03T11:03:06.252Z,16.90
2019-04-03T11:04:10.340Z,16.90
2019-04-03T11:05:09.778Z,16.90
2019-04-03T11:06:06.261Z,17.00
2019-04-03T11:07:06.148Z,17.00
2019-04-03T11:08:06.176Z,17.00
2019-04-03T11:09:10.410Z,17.10
2019-04-03T11:11:06.218Z,17.10
2019-04-03T11:12:08.951Z,17.10
2019-04-03T11:13:06.448Z,17.10
2019-04-03T11:14:07.462Z,17.20
2019-04-03T11:15:06.217Z,17.20
2019-04-03T11:16:06.196Z,17.20
2019-04-03T11:17:06.139Z,17.20
2019-04-03T11:18:06.157Z,17.20
2019-04-03T11:19:07.277Z,17.20
2019-04-03T11:20:06.981Z,17.30
2019-04-03T11:21:06.149Z,17.30
2019-04-03T11:22:06.210Z,17.40
2019-04-03T11:23:07.546Z,17.40
2019-04-03T11:24:07.085Z,17.50
2019-04-03T11:25:06.492Z,17.50
2019-04-03T11:26:12.239Z,17.60
2019-04-03T11:27:06.223Z,17.60
2019-04-03T11:28:10.302Z,17.60
2019-04-03T11:29:08.246Z,17.60
2019-04-03T11:30:06.179Z,17.60
2019-04-03T11:31:06.203Z,17.60
2019-04-03T11:33:06.195Z,17.60
2019-04-03T11:34:06.176Z,17.60
2019-04-03T11:35:12.230Z,17.70
2019-04-03T11:36:06.463Z,17.70
2019-04-03T11:37:06.435Z,17.70
2019-04-03T11:38:12.511Z,17.70
2019-04-03T11:39:12.211Z,17.70
2019-04-03T11:40:06.445Z,17.70
2019-04-03T11:41:12.333Z,17.80
2019-04-03T11:43:06.248Z,17.80
2019-04-03T11:44:06.190Z,17.80
2019-04-03T11:45:06.223Z,17.80
2019-04-03T11:46:09.770Z,17.80
2019-04-03T11:47:06.247Z,17.80
2019-04-03T11:48:06.189Z,17.90
2019-04-03T11:49:06.205Z,17.80
2019-04-03T11:50:06.219Z,17.90
2019-04-03T11:51:06.435Z,17.90
2019-04-03T11:52:06.262Z,17.90
2019-04-03T11:53:07.571Z,17.80
2019-04-03T11:54:07.856Z,17.90
2019-04-03T11:55:07.810Z,17.80
2019-04-03T11:56:06.448Z,17.80
2019-04-03T11:57:06.525Z,17.90
2019-04-03T11:58:06.175Z,17.90
2019-04-03T12:00:06.426Z,17.90
2019-04-03T12:01:06.576Z,17.90
2019-04-03T12:02:08.595Z,17.90
2019-04-03T12:03:06.220Z,18.00
2019-04-03T12:04:06.203Z,17.90
2019-04-03T12:05:06.572Z,18.00
2019-04-03T12:06:10.020Z,18.00
2019-04-03T12:07:06.206Z,18.00
2019-04-03T12:08:06.378Z,18.00
2019-04-03T12:10:06.280Z,18.00
2019-04-03T12:11:07.321Z,18.10
2019-04-03T12:12:08.825Z,18.00
2019-04-03T12:13:06.682Z,18.00
2019-04-03T12:14:06.229Z,18.00
2019-04-03T12:15:06.609Z,18.00
2019-04-03T12:16:12.755Z,18.10
2019-04-03T12:18:06.542Z,18.00
2019-04-03T12:18:11.048Z,18.10
2019-04-03T12:19:06.445Z,18.10
2019-04-03T12:20:08.772Z,18.10
2019-04-03T12:21:06.570Z,18.10
2019-04-03T12:22:06.266Z,18.10
2019-04-03T12:23:06.258Z,18.10
2019-04-03T12:24:06.223Z,18.10
2019-04-03T12:25:10.409Z,18.20
2019-04-03T12:26:06.246Z,18.20
2019-04-03T12:27:06.254Z,18.20
2019-04-03T12:29:07.631Z,18.30
2019-04-03T12:30:06.238Z,18.40
2019-04-03T12:31:06.259Z,18.40
2019-04-03T12:32:08.727Z,18.50
2019-04-03T12:34:06.758Z,18.50
2019-04-03T12:34:11.051Z,18.50
2019-04-03T12:35:07.219Z,18.60
2019-04-03T12:36:07.160Z,18.50
2019-04-03T12:38:06.279Z,18.50
2019-04-03T12:38:11.404Z,18.40
2019-04-03T12:39:06.348Z,18.40
2019-04-03T12:40:06.261Z,18.40
2019-04-03T12:41:06.566Z,18.30
2019-04-03T12:42:08.256Z,18.20
2019-04-03T12:43:10.751Z,18.20
2019-04-03T12:44:10.139Z,18.20
2019-04-03T12:45:06.308Z,18.20
2019-04-03T12:46:06.308Z,18.20
2019-04-03T12:47:12.088Z,18.20
2019-04-03T12:48:12.356Z,18.10
2019-04-03T12:49:07.225Z,18.20
2019-04-03T12:50:06.335Z,18.20
2019-04-03T12:51:06.482Z,18.20
2019-04-03T12:52:06.608Z,18.20
2019-04-03T12:53:09.878Z,18.20
2019-04-03T12:54:12.204Z,18.20
2019-04-03T12:55:07.238Z,18.20
2019-04-03T12:56:06.582Z,18.20
2019-04-03T12:57:06.133Z,18.20
2019-04-03T12:58:06.347Z,18.20
2019-04-03T12:59:08.622Z,18.30
2019-04-03T13:00:11.423Z,18.20
2019-04-03T13:01:06.301Z,18.20
2019-04-03T13:02:06.327Z,18.20
2019-04-03T13:03:06.640Z,18.30
2019-04-03T13:04:06.303Z,18.20
2019-04-03T13:05:07.285Z,18.20
2019-04-03T13:06:09.685Z,18.10
2019-04-03T13:07:06.451Z,18.10
2019-04-03T13:08:06.362Z,18.10
2019-04-03T13:09:06.321Z,18.10
2019-04-03T13:10:07.646Z,18.00
2019-04-03T13:11:06.287Z,17.90
2019-04-03T13:12:06.333Z,17.90
2019-04-03T13:13:06.679Z,17.90
2019-04-03T13:14:06.336Z,17.80
2019-04-03T13:15:10.291Z,17.70
2019-04-03T13:16:06.927Z,17.70
2019-04-03T13:17:11.193Z,17.60
2019-04-03T13:18:06.575Z,17.60
2019-04-03T13:19:06.135Z,17.60
2019-04-03T13:20:06.633Z,17.50
2019-04-03T13:21:08.695Z,17.50
2019-04-03T13:22:06.078Z,17.50
2019-04-03T13:23:06.314Z,17.50
2019-04-03T13:24:06.338Z,17.50
2019-04-03T13:25:06.340Z,17.50